createdAt,value
2023-05-24T00:01:56.939Z,10.09
2023-05-24T00:04:25.226Z,9.98
2023-05-24T00:06:55.030Z,10.00
2023-05-24T00:09:22.021Z,10.02
2023-05-24T00:11:48.741Z,10.02
2023-05-24T00:14:15.838Z,9.98
2023-05-24T00:16:42.580Z,9.97
2023-05-24T00:19:11.299Z,9.91
2023-05-24T00:21:38.191Z,9.97
2023-05-24T00:24:04.917Z,9.94
2023-05-24T00:26:31.503Z,9.89
2023-05-24T00:28:57.967Z,9.87
2023-05-24T00:31:24.548Z,9.80
2023-05-24T00:33:51.051Z,9.70
2023-05-24T00:36:17.597Z,9.76
2023-05-24T00:38:44.095Z,9.83
2023-05-24T00:41:11.509Z,9.75
2023-05-24T00:43:38.125Z,9.78
2023-05-24T00:46:32.867Z,9.77
2023-05-24T00:49:01.383Z,9.66
2023-05-24T00:51:28.248Z,9.61
2023-05-24T00:53:55.522Z,9.60
2023-05-24T00:56:23.042Z,9.59
2023-05-24T00:58:54.466Z,9.62
2023-05-24T01:01:20.983Z,9.60
2023-05-24T01:03:48.212Z,9.51
2023-05-24T01:06:16.211Z,9.48
2023-05-24T01:08:50.122Z,9.50
2023-05-24T01:11:22.755Z,9.38
2023-05-24T01:13:58.976Z,9.21
2023-05-24T01:16:47.878Z,9.13
2023-05-24T01:19:37.673Z,9.21
2023-05-24T01:22:24.423Z,9.16
2023-05-24T01:25:03.517Z,9.18
2023-05-24T01:27:33.319Z,9.13
2023-05-24T01:30:02.125Z,8.98
2023-05-24T01:32:29.162Z,8.88
2023-05-24T01:34:55.820Z,8.89
2023-05-24T01:37:22.637Z,8.85
2023-05-24T01:39:49.539Z,8.86
2023-05-24T01:42:32.627Z,8.91
2023-05-24T01:45:05.152Z,8.92
2023-05-24T01:47:46.936Z,8.78
2023-05-24T01:50:45.556Z,8.84
2023-05-24T01:53:14.246Z,8.89
2023-05-24T01:55:42.219Z,8.86
2023-05-24T01:58:10.463Z,8.81
2023-05-24T02:00:39.311Z,8.80
2023-05-24T02:03:06.845Z,8.81
2023-05-24T02:05:33.930Z,8.77
2023-05-24T02:08:00.408Z,8.71
2023-05-24T02:10:26.923Z,8.76
2023-05-24T02:12:53.460Z,8.69
2023-05-24T02:15:20.717Z,8.62
2023-05-24T02:17:48.099Z,8.63
2023-05-24T02:20:14.689Z,8.57
2023-05-24T02:22:41.615Z,8.52
2023-05-24T02:25:08.574Z,8.41
2023-05-24T02:27:35.156Z,8.43
2023-05-24T02:30:01.637Z,8.44
2023-05-24T02:32:28.131Z,8.45
2023-05-24T02:34:54.699Z,8.46
2023-05-24T02:37:21.154Z,8.38
2023-05-24T02:39:47.704Z,8.37
2023-05-24T02:42:14.234Z,8.20
2023-05-24T02:44:42.756Z,8.17
2023-05-24T02:47:09.274Z,8.03
2023-05-24T02:49:35.784Z,8.02
2023-05-24T02:52:02.349Z,8.01
2023-05-24T02:54:28.914Z,8.00
2023-05-24T02:56:56.690Z,7.87
2023-05-24T02:59:23.716Z,7.86
2023-05-24T03:01:50.689Z,7.83
2023-05-24T03:04:17.425Z,7.87
2023-05-24T03:06:44.880Z,7.62
2023-05-24T03:09:11.721Z,7.56
2023-05-24T03:11:38.237Z,7.58
2023-05-24T03:14:06.338Z,7.47
2023-05-24T03:16:33.126Z,7.45
2023-05-24T03:19:00.361Z,7.49
2023-05-24T03:21:27.358Z,7.57
2023-05-24T03:23:54.027Z,7.50
2023-05-24T03:26:20.766Z,7.51
2023-05-24T03:28:47.720Z,7.50
2023-05-24T03:31:14.316Z,7.44
2023-05-24T03:33:40.795Z,7.55
2023-05-24T03:36:07.418Z,7.50
2023-05-24T03:38:33.908Z,7.48
2023-05-24T03:41:00.464Z,7.37
2023-05-24T03:43:26.987Z,7.34
2023-05-24T03:45:53.584Z,7.48
2023-05-24T03:48:22.777Z,7.60
2023-05-24T03:50:49.300Z,7.57
2023-05-24T03:53:15.996Z,7.39
2023-05-24T03:55:42.499Z,7.34
2023-05-24T03:58:08.998Z,7.33
2023-05-24T04:00:35.492Z,7.29
2023-05-24T04:03:02.541Z,7.36
2023-05-24T04:05:29.988Z,7.44
2023-05-24T04:07:56.785Z,7.48
2023-05-24T04:10:23.386Z,7.58
2023-05-24T04:12:50.070Z,7.70
2023-05-24T04:15:16.777Z,7.73
2023-05-24T04:17:44.624Z,7.82
2023-05-24T04:20:12.774Z,7.83
2023-05-24T04:22:39.604Z,7.87
2023-05-24T04:25:06.801Z,7.84
2023-05-24T04:27:33.398Z,7.83
2023-05-24T04:30:00.301Z,7.75
2023-05-24T04:32:30.299Z,7.68
2023-05-24T04:34:56.979Z,7.78
2023-05-24T04:37:24.664Z,7.81
2023-05-24T04:39:51.666Z,7.81
2023-05-24T04:42:18.171Z,7.84
2023-05-24T04:44:45.113Z,7.89
2023-05-24T04:47:12.893Z,7.88
2023-05-24T04:49:39.661Z,7.89
2023-05-24T04:52:07.346Z,8.00
2023-05-24T04:54:34.155Z,8.04
2023-05-24T04:57:00.681Z,8.14
2023-05-24T04:59:27.153Z,8.21
2023-05-24T05:01:53.795Z,8.31
2023-05-24T05:04:20.350Z,8.41
2023-05-24T05:06:48.315Z,8.50
2023-05-24T05:09:15.968Z,8.59
2023-05-24T05:11:42.757Z,8.64
2023-05-24T05:14:09.516Z,8.68
2023-05-24T05:16:36.724Z,8.63
2023-05-24T05:19:04.737Z,8.62
2023-05-24T05:21:34.961Z,8.62
2023-05-24T05:24:01.888Z,8.65
2023-05-24T05:26:28.909Z,8.71
2023-05-24T05:28:55.870Z,8.71
2023-05-24T05:31:22.758Z,8.78
2023-05-24T05:33:49.466Z,8.84
2023-05-24T05:36:22.194Z,8.89
2023-05-24T05:38:48.746Z,8.98
2023-05-24T05:41:15.241Z,9.05
2023-05-24T05:43:41.699Z,9.09
2023-05-24T05:46:08.265Z,9.04
2023-05-24T05:48:34.848Z,9.14
2023-05-24T05:51:01.370Z,9.23
2023-05-24T05:53:27.886Z,9.22
2023-05-24T05:55:54.459Z,9.34
2023-05-24T05:58:21.027Z,9.40
2023-05-24T06:00:47.562Z,9.49
2023-05-24T06:03:14.273Z,9.53
2023-05-24T06:05:41.917Z,9.58
2023-05-24T06:08:08.370Z,9.59
2023-05-24T06:10:34.854Z,9.59
2023-05-24T06:13:02.767Z,9.59
2023-05-24T06:15:29.372Z,9.72
2023-05-24T06:17:55.915Z,9.80
2023-05-24T06:20:23.364Z,9.83
2023-05-24T06:22:50.715Z,9.86
2023-05-24T06:25:19.271Z,9.85
2023-05-24T06:27:46.136Z,9.93
2023-05-24T06:30:13.553Z,9.94
2023-05-24T06:32:40.328Z,9.99
2023-05-24T06:35:07.968Z,10.04
2023-05-24T06:37:34.827Z,10.00
2023-05-24T06:40:01.591Z,10.09
2023-05-24T06:42:28.123Z,10.15
2023-05-24T06:44:54.619Z,10.14
2023-05-24T06:47:21.989Z,10.15
2023-05-24T06:49:49.971Z,10.18
2023-05-24T06:52:16.850Z,10.05
2023-05-24T06:54:45.412Z,10.12
2023-05-24T06:57:11.965Z,10.09
2023-05-24T06:59:38.473Z,10.18
2023-05-24T07:02:05.075Z,10.26
2023-05-24T07:04:32.370Z,10.35
2023-05-24T07:06:58.932Z,10.52
2023-05-24T07:09:25.496Z,10.43
2023-05-24T07:11:52.861Z,10.39
2023-05-24T07:14:19.413Z,10.42
2023-05-24T07:16:46.732Z,10.45
2023-05-24T07:19:13.786Z,10.47
2023-05-24T07:21:40.859Z,10.55
2023-05-24T07:24:07.513Z,10.69
2023-05-24T07:26:34.293Z,10.71
2023-05-24T07:29:00.853Z,10.60
2023-05-24T07:31:29.937Z,10.62
2023-05-24T07:33:56.471Z,10.69
2023-05-24T07:36:23.206Z,10.76
2023-05-24T07:38:49.681Z,10.79
2023-05-24T07:41:16.548Z,10.79
2023-05-24T07:43:43.121Z,10.89
2023-05-24T07:46:10.527Z,10.91
2023-05-24T07:48:37.057Z,10.85
2023-05-24T07:51:03.668Z,10.87
2023-05-24T07:53:30.234Z,10.88
2023-05-24T07:55:56.737Z,10.97
2023-05-24T07:58:23.227Z,11.04
2023-05-24T08:00:50.029Z,11.04
2023-05-24T08:03:17.849Z,11.08
2023-05-24T08:05:44.835Z,11.01
2023-05-24T08:08:11.550Z,11.13
2023-05-24T08:10:38.046Z,11.32
2023-05-24T08:13:05.682Z,11.42
2023-05-24T08:15:32.163Z,11.46
2023-05-24T08:17:58.862Z,11.51
2023-05-24T08:20:25.538Z,11.50
2023-05-24T08:22:52.077Z,11.43
2023-05-24T08:25:18.973Z,11.42
2023-05-24T08:27:45.760Z,11.45
2023-05-24T08:30:14.203Z,11.61
2023-05-24T08:32:40.967Z,11.83
2023-05-24T08:35:20.343Z,11.98
2023-05-24T08:37:49.024Z,12.01
2023-05-24T08:40:15.886Z,12.11
2023-05-24T08:42:42.492Z,12.11
2023-05-24T08:45:11.902Z,12.25
2023-05-24T08:47:39.001Z,12.25
2023-05-24T08:50:07.145Z,12.24
2023-05-24T08:52:34.408Z,12.18
2023-05-24T08:55:04.851Z,12.06
2023-05-24T08:57:39.242Z,12.13
2023-05-24T09:00:09.442Z,12.10
2023-05-24T09:02:38.589Z,12.12
2023-05-24T09:05:08.428Z,12.25
2023-05-24T09:07:35.629Z,12.26
2023-05-24T09:10:05.864Z,12.13
2023-05-24T09:12:38.189Z,12.01
2023-05-24T09:15:07.038Z,12.02
2023-05-24T09:17:35.854Z,12.01
2023-05-24T09:20:06.782Z,12.16
2023-05-24T09:22:36.811Z,12.34
2023-05-24T09:25:06.041Z,12.41
2023-05-24T09:27:34.459Z,12.51
2023-05-24T09:30:03.370Z,12.58
2023-05-24T09:32:31.173Z,12.55
2023-05-24T09:34:59.664Z,12.62
2023-05-24T09:37:32.131Z,12.67
2023-05-24T09:39:59.503Z,12.72
2023-05-24T09:42:28.368Z,12.71
2023-05-24T09:45:09.799Z,12.78
2023-05-24T09:47:37.841Z,12.66
2023-05-24T09:50:07.093Z,12.66
2023-05-24T09:52:37.375Z,12.68
2023-05-24T09:55:18.271Z,12.67
2023-05-24T09:58:05.947Z,12.70
2023-05-24T10:00:40.919Z,12.82
2023-05-24T10:03:10.949Z,12.90
2023-05-24T10:05:38.664Z,13.03
2023-05-24T10:08:05.324Z,13.13
2023-05-24T10:10:33.497Z,13.11
2023-05-24T10:13:01.563Z,13.14
2023-05-24T10:15:29.001Z,13.24
2023-05-24T10:17:56.875Z,13.26
2023-05-24T10:20:24.646Z,13.36
2023-05-24T10:23:10.743Z,13.18
2023-05-24T10:25:44.628Z,13.08
2023-05-24T10:28:14.988Z,13.04
2023-05-24T10:30:59.447Z,13.05
2023-05-24T10:33:26.489Z,13.04
2023-05-24T10:35:54.095Z,12.97
2023-05-24T10:38:23.821Z,12.95
2023-05-24T10:40:50.990Z,12.93
2023-05-24T10:43:18.131Z,13.00
2023-05-24T10:45:49.535Z,13.10
2023-05-24T10:48:16.801Z,13.21
2023-05-24T10:50:44.274Z,13.39
2023-05-24T10:53:15.838Z,13.35
2023-05-24T10:56:04.281Z,13.38
2023-05-24T10:58:33.857Z,13.51
2023-05-24T11:01:00.405Z,13.60
2023-05-24T11:03:33.544Z,13.66
2023-05-24T11:06:00.297Z,13.64
2023-05-24T11:08:35.516Z,13.58
2023-05-24T11:13:47.803Z,13.39
2023-05-24T11:16:40.487Z,13.38
2023-05-24T11:19:21.007Z,13.31
2023-05-24T11:21:50.050Z,13.31
2023-05-24T11:24:18.156Z,13.26
2023-05-24T11:26:45.645Z,13.25
2023-05-24T11:29:21.156Z,13.22
2023-05-24T11:31:57.759Z,13.20
2023-05-24T11:34:24.711Z,13.14
2023-05-24T11:36:53.194Z,13.20
2023-05-24T11:39:19.731Z,13.25
2023-05-24T11:41:47.635Z,13.27
2023-05-24T11:44:21.499Z,13.31
2023-05-24T11:46:48.065Z,13.28
2023-05-24T11:49:17.966Z,13.33
2023-05-24T11:51:44.516Z,13.37
2023-05-24T11:54:11.873Z,13.44
2023-05-24T11:56:38.784Z,13.53
2023-05-24T11:59:25.643Z,13.55
2023-05-24T12:02:03.703Z,13.61
2023-05-24T12:04:31.330Z,13.75
2023-05-24T12:06:58.318Z,13.92
2023-05-24T12:09:25.343Z,14.22
2023-05-24T12:11:53.057Z,14.29
2023-05-24T12:14:31.031Z,14.30
2023-05-24T12:16:57.972Z,14.25
2023-05-24T12:21:57.728Z,14.69
2023-05-24T12:24:26.221Z,15.15
2023-05-24T12:26:57.463Z,15.03
2023-05-24T12:29:24.054Z,15.07
2023-05-24T12:31:50.751Z,14.93
2023-05-24T12:34:20.813Z,14.91
2023-05-24T12:36:48.094Z,14.92
2023-05-24T12:39:18.129Z,14.92
2023-05-24T12:41:45.439Z,15.26
2023-05-24T12:44:12.483Z,15.40
2023-05-24T12:46:39.165Z,15.62
2023-05-24T12:49:05.936Z,15.54
2023-05-24T12:51:32.444Z,15.62
2023-05-24T12:53:59.019Z,15.58
2023-05-24T12:56:27.429Z,15.52
2023-05-24T12:58:55.796Z,15.45
2023-05-24T13:01:22.475Z,15.45
2023-05-24T13:03:49.168Z,15.61
2023-05-24T13:06:15.955Z,15.39
2023-05-24T13:08:42.502Z,15.24
2023-05-24T13:11:09.086Z,15.16
2023-05-24T13:13:35.741Z,15.23
2023-05-24T13:16:02.885Z,15.15
2023-05-24T13:18:30.372Z,15.09
2023-05-24T13:21:00.352Z,14.84
2023-05-24T13:23:27.927Z,14.74
2023-05-24T13:25:54.617Z,14.67
2023-05-24T13:28:22.230Z,14.81
2023-05-24T13:30:48.874Z,14.93
2023-05-24T13:33:15.963Z,15.13
2023-05-24T13:35:42.775Z,15.37
2023-05-24T13:38:09.654Z,15.55
2023-05-24T13:40:37.406Z,15.61
2023-05-24T13:43:04.843Z,15.30
2023-05-24T13:45:33.195Z,15.22
2023-05-24T13:48:06.217Z,15.12
2023-05-24T13:50:35.110Z,15.18
2023-05-24T13:53:02.935Z,15.21
2023-05-24T13:55:31.463Z,15.12
2023-05-24T13:57:58.369Z,15.27
2023-05-24T14:00:24.973Z,15.40
2023-05-24T14:02:52.067Z,15.54
2023-05-24T14:05:27.486Z,15.41
2023-05-24T14:07:55.247Z,15.38
2023-05-24T14:10:22.057Z,15.43
2023-05-24T14:12:59.491Z,15.44
2023-05-24T14:15:26.481Z,15.19
2023-05-24T14:17:53.118Z,15.26
2023-05-24T14:20:19.758Z,15.35
2023-05-24T14:22:46.879Z,15.64
2023-05-24T14:25:13.993Z,15.58
2023-05-24T14:27:41.252Z,15.43
2023-05-24T14:30:08.374Z,15.58
2023-05-24T14:32:34.906Z,15.69
2023-05-24T14:35:01.813Z,15.83
2023-05-24T14:37:28.317Z,15.82
2023-05-24T14:39:55.167Z,15.89
2023-05-24T14:42:21.786Z,15.92
2023-05-24T14:44:48.322Z,15.87
2023-05-24T14:47:14.871Z,15.61
2023-05-24T14:49:41.380Z,15.47
2023-05-24T14:52:07.892Z,15.28
2023-05-24T14:54:34.348Z,15.43
2023-05-24T14:57:00.956Z,15.59
2023-05-24T14:59:27.544Z,15.70
2023-05-24T15:01:54.049Z,15.69
2023-05-24T15:04:20.548Z,15.69
2023-05-24T15:06:47.225Z,15.70
2023-05-24T15:09:13.842Z,15.65
2023-05-24T15:11:40.347Z,15.55
2023-05-24T15:14:06.848Z,15.37
2023-05-24T15:16:33.421Z,15.38
2023-05-24T15:19:01.038Z,15.34
2023-05-24T15:21:27.614Z,15.03
2023-05-24T15:23:54.114Z,14.98
2023-05-24T15:26:21.206Z,14.96
2023-05-24T15:28:48.204Z,14.94
2023-05-24T15:31:14.780Z,14.96
2023-05-24T15:33:41.577Z,15.11
2023-05-24T15:36:08.219Z,15.22
2023-05-24T15:38:35.015Z,15.31
2023-05-24T15:41:01.487Z,15.36
2023-05-24T15:43:29.808Z,15.35
2023-05-24T15:45:57.485Z,15.50
2023-05-24T15:48:24.058Z,15.78
2023-05-24T15:51:06.557Z,16.04
2023-05-24T15:53:37.220Z,16.32
2023-05-24T15:56:03.901Z,16.43
2023-05-24T15:58:30.616Z,16.43
2023-05-24T16:00:57.140Z,16.53
2023-05-24T16:03:23.782Z,16.40
2023-05-24T16:05:50.609Z,16.52
2023-05-24T16:08:17.265Z,16.61
2023-05-24T16:10:44.805Z,16.59
2023-05-24T16:13:11.794Z,16.35
2023-05-24T16:15:40.886Z,16.08
2023-05-24T16:18:08.381Z,15.86
2023-05-24T16:20:35.202Z,15.65
2023-05-24T16:23:03.123Z,15.67
2023-05-24T16:25:29.614Z,15.38
2023-05-24T16:27:56.459Z,15.52
2023-05-24T16:30:23.000Z,15.35
2023-05-24T16:32:49.588Z,15.26
2023-05-24T16:35:16.434Z,15.37
2023-05-24T16:37:43.016Z,15.49
2023-05-24T16:40:10.034Z,15.54
2023-05-24T16:42:36.574Z,15.58
2023-05-24T16:45:03.165Z,15.71
2023-05-24T16:47:30.088Z,15.75
2023-05-24T16:49:56.808Z,15.86
2023-05-24T16:52:23.344Z,15.88
2023-05-24T16:54:49.936Z,15.81
2023-05-24T16:57:17.045Z,15.94
2023-05-24T16:59:45.124Z,16.01
2023-05-24T17:02:11.586Z,15.99
2023-05-24T17:04:38.090Z,15.93
2023-05-24T17:07:04.743Z,15.83
2023-05-24T17:09:31.320Z,15.82
2023-05-24T17:11:57.849Z,15.80
2023-05-24T17:14:24.375Z,15.74
2023-05-24T17:16:50.877Z,15.70
2023-05-24T17:19:19.392Z,15.56
2023-05-24T17:21:46.036Z,15.53
2023-05-24T17:24:12.535Z,15.52
2023-05-24T17:26:40.374Z,15.54
2023-05-24T17:29:06.890Z,15.41
2023-05-24T17:31:33.555Z,15.46
2023-05-24T17:34:00.867Z,15.43
2023-05-24T17:36:27.483Z,15.49
2023-05-24T17:38:53.949Z,15.50
2023-05-24T17:41:20.557Z,15.52
2023-05-24T17:43:47.006Z,15.47
2023-05-24T17:46:14.165Z,15.49
2023-05-24T17:48:41.904Z,15.37
2023-05-24T17:51:09.731Z,15.38
2023-05-24T17:53:37.489Z,15.41
2023-05-24T17:56:05.264Z,15.44
2023-05-24T17:58:35.687Z,15.43
2023-05-24T18:01:08.615Z,15.18
2023-05-24T18:03:40.655Z,15.10
2023-05-24T18:06:07.966Z,15.07
2023-05-24T18:08:37.313Z,15.14
2023-05-24T18:11:08.216Z,15.19
2023-05-24T18:13:36.580Z,15.11
2023-05-24T18:16:03.503Z,15.04
2023-05-24T18:18:30.291Z,15.12
2023-05-24T18:20:56.758Z,15.17
2023-05-24T18:23:23.261Z,15.22
2023-05-24T18:25:49.984Z,15.21
2023-05-24T18:28:16.552Z,15.11
2023-05-24T18:30:43.089Z,15.08
2023-05-24T18:33:09.774Z,15.02
2023-05-24T18:35:36.367Z,14.90
2023-05-24T18:38:03.843Z,14.89
2023-05-24T18:40:30.640Z,14.75
2023-05-24T18:42:57.161Z,14.62
2023-05-24T18:45:23.683Z,14.62
2023-05-24T18:47:50.294Z,14.61
2023-05-24T18:50:17.114Z,14.58
2023-05-24T18:52:43.764Z,14.61
2023-05-24T18:55:13.231Z,14.59
2023-05-24T18:57:39.741Z,14.59
2023-05-24T19:00:07.197Z,14.55
2023-05-24T19:02:39.035Z,14.54
2023-05-24T19:05:06.913Z,14.47
2023-05-24T19:07:34.520Z,14.45
2023-05-24T19:10:01.075Z,14.43
2023-05-24T19:12:27.562Z,14.36
2023-05-24T19:14:54.105Z,14.31
2023-05-24T19:17:20.728Z,14.25
2023-05-24T19:19:48.042Z,14.06
2023-05-24T19:22:14.555Z,14.07
2023-05-24T19:24:41.413Z,14.02
2023-05-24T19:27:08.212Z,13.96
2023-05-24T19:29:36.333Z,14.01
2023-05-24T19:32:03.274Z,13.91
2023-05-24T19:34:31.889Z,13.90
2023-05-24T19:36:58.500Z,13.79
2023-05-24T19:39:25.272Z,13.74
2023-05-24T19:41:52.677Z,13.76
2023-05-24T19:44:19.490Z,13.69
2023-05-24T19:46:46.073Z,13.66
2023-05-24T19:49:12.808Z,13.60
2023-05-24T19:51:39.370Z,13.49
2023-05-24T19:54:09.075Z,13.34
2023-05-24T19:56:36.224Z,13.21
2023-05-24T19:59:02.860Z,13.19
2023-05-24T20:01:29.367Z,13.18
2023-05-24T20:03:56.135Z,13.18
2023-05-24T20:06:22.914Z,13.17
2023-05-24T20:08:49.609Z,13.10
2023-05-24T20:11:16.128Z,13.09
2023-05-24T20:13:42.635Z,12.87
2023-05-24T20:16:09.258Z,12.77
2023-05-24T20:18:35.937Z,12.67
2023-05-24T20:21:02.993Z,12.69
2023-05-24T20:23:30.621Z,12.72
2023-05-24T20:25:57.700Z,12.51
2023-05-24T20:28:30.815Z,12.52
2023-05-24T20:30:58.966Z,12.57
2023-05-24T20:33:25.772Z,12.43
2023-05-24T20:35:54.022Z,12.48
2023-05-24T20:38:20.715Z,12.35
2023-05-24T20:40:47.228Z,12.34
2023-05-24T20:43:13.878Z,12.27
2023-05-24T20:45:40.576Z,12.29
2023-05-24T20:48:07.199Z,12.34
2023-05-24T20:50:33.725Z,12.23
2023-05-24T20:53:00.291Z,12.06
2023-05-24T20:55:27.193Z,12.03
2023-05-24T20:57:54.191Z,11.88
2023-05-24T21:00:21.184Z,11.83
2023-05-24T21:02:47.957Z,11.74
2023-05-24T21:05:14.854Z,11.70
2023-05-24T21:07:41.584Z,11.75
2023-05-24T21:10:09.313Z,11.70
2023-05-24T21:12:35.777Z,11.68
2023-05-24T21:15:02.309Z,11.61
2023-05-24T21:17:28.801Z,11.58
2023-05-24T21:19:55.404Z,11.62
2023-05-24T21:22:22.020Z,11.49
2023-05-24T21:24:48.599Z,11.39
2023-05-24T21:27:15.464Z,11.38
2023-05-24T21:29:42.020Z,11.35
2023-05-24T21:32:08.522Z,11.44
2023-05-24T21:34:36.464Z,11.44
2023-05-24T21:37:04.868Z,11.50
2023-05-24T21:39:32.564Z,11.46
2023-05-24T21:41:59.031Z,11.32
2023-05-24T21:44:25.571Z,11.24
2023-05-24T21:46:52.243Z,11.22
2023-05-24T21:49:19.952Z,11.11
2023-05-24T21:51:46.686Z,11.17
2023-05-24T21:54:13.129Z,11.10
2023-05-24T21:56:39.660Z,11.03
2023-05-24T21:59:06.127Z,10.98
2023-05-24T22:01:32.605Z,10.93
2023-05-24T22:03:59.344Z,10.85
2023-05-24T22:06:26.179Z,10.81
2023-05-24T22:08:52.700Z,10.82
2023-05-24T22:11:19.338Z,10.84
2023-05-24T22:13:45.798Z,10.81
2023-05-24T22:16:12.487Z,10.82
2023-05-24T22:18:39.465Z,10.77
2023-05-24T22:21:06.008Z,10.75
2023-05-24T22:23:32.556Z,10.78
2023-05-24T22:25:59.091Z,10.74
2023-05-24T22:28:26.057Z,10.69
2023-05-24T22:30:52.633Z,10.65
2023-05-24T22:33:20.007Z,10.61
2023-05-24T22:35:46.716Z,10.57
2023-05-24T22:38:13.239Z,10.50
2023-05-24T22:40:42.138Z,10.44
2023-05-24T22:43:08.967Z,10.50
2023-05-24T22:45:35.452Z,10.50
2023-05-24T22:48:03.410Z,10.52
2023-05-24T22:50:30.075Z,10.40
2023-05-24T22:52:56.758Z,10.37
2023-05-24T22:55:23.913Z,10.39
2023-05-24T22:57:50.756Z,10.43
2023-05-24T23:00:17.550Z,10.16
2023-05-24T23:02:44.137Z,10.09
2023-05-24T23:05:11.508Z,10.03
2023-05-24T23:07:39.670Z,9.97
2023-05-24T23:10:06.730Z,10.07
2023-05-24T23:12:33.290Z,10.11
2023-05-24T23:14:59.878Z,10.14
2023-05-24T23:17:26.409Z,10.12
2023-05-24T23:19:52.989Z,10.11
2023-05-24T23:22:19.604Z,10.06
2023-05-24T23:24:49.445Z,9.97
2023-05-24T23:27:15.975Z,9.97
2023-05-24T23:29:42.609Z,9.94
2023-05-24T23:32:09.871Z,9.91
2023-05-24T23:34:37.205Z,10.03
2023-05-24T23:37:04.669Z,9.98
2023-05-24T23:39:31.334Z,10.03
2023-05-24T23:41:57.921Z,10.04
2023-05-24T23:44:25.537Z,10.04
2023-05-24T23:46:52.935Z,10.09
2023-05-24T23:49:20.178Z,10.10
2023-05-24T23:51:46.791Z,10.09
2023-05-24T23:54:16.196Z,9.97
2023-05-24T23:56:45.516Z,9.97
2023-05-24T23:59:11.985Z,9.98
